Flight Track Log - Related Links

Times and Time Zones

All times are in EDT time to prevent confusion due to time zone crossing. See the CJT574 flight status page for this flight to view local times or setup timezone preferences in your user account.

Time Position Orientation Groundspeed Altitude Reporting Facility
EDT Latitude Longitude Course Direction KTS MPH feet Rate Location/Type
Wed 11:54:41 PM 53.3000 -113.6333 310° West 160 184 3,300  Level Edmonton Center
Wed 11:55:41 PM 53.3167 -113.6667 310° West 150 173 4,700 1,200 Climbing Edmonton Center
Wed 11:56:41 PM 53.3500 -113.6167 42° Northeast 210 242 5,700 1,050 Climbing Edmonton Center
Wed 11:57:41 PM 53.3333 -113.5000 103° East 250 288 6,800 1,550 Climbing Edmonton Center
Wed 11:58:41 PM 53.3333 -113.3667 90° East 290 334 8,800 1,650 Climbing Edmonton Center
Wed 11:59:41 PM 53.3000 -113.2167 110° East 320 368 10,100 1,000 Climbing Edmonton Center
Thu 12:00:41 AM 53.3000 -113.0667 90° East 370 426 10,800 1,350 Climbing Edmonton Center
Thu 12:01:41 AM 53.2833 -112.8667 98° East 410 472 12,800 2,150 Climbing Edmonton Center
Thu 12:02:41 AM 53.2333 -112.6833 114° Southeast 400 460 15,100 1,600 Climbing Edmonton Center
Thu 12:03:41 AM 53.2167 -112.4833 98° East 410 472 16,000 1,300 Climbing Edmonton Center
Thu 12:04:41 AM 53.1833 -112.3167 108° East 440 506 17,700 1,850 Climbing Edmonton Center
Thu 12:05:41 AM 53.1667 -112.1167 98° East 430 495 19,700 1,350 Climbing Edmonton Center
Thu 12:06:41 AM 53.1167 -111.9000 111° Southeast 440 506 20,400 900 Climbing Edmonton Center
Thu 12:07:41 AM 53.0833 -111.7000 105° East 460 529 21,500 1,550 Climbing Edmonton Center
Thu 12:08:41 AM 53.0667 -111.4667 97° East 470 541 23,500 1,500 Climbing Edmonton Center
Thu 12:09:41 AM 53.0167 -111.2667 112° Southeast 460 529 24,500 950 Climbing Edmonton Center
Thu 12:10:41 AM 52.9833 -111.0667 105° East 480 552 25,400 950 Climbing Edmonton Center
Thu 12:11:41 AM 52.9667 -110.8333 97° East 490 564 26,400 1,050 Climbing Edmonton Center
Thu 12:12:41 AM 52.9000 -110.6000 115° Southeast 490 564 27,500 900 Climbing Edmonton Center
Thu 12:13:41 AM 52.8833 -110.4000 98° East 500 575 28,200 800 Climbing Edmonton Center
Thu 12:14:41 AM 52.8333 -110.1667 109° East 510 587 29,100 950 Climbing Edmonton Center
Thu 12:15:41 AM 52.7833 -109.9500 111° Southeast 510 587 30,100 650 Climbing Edmonton Center
Thu 12:16:41 AM 52.7500 -109.7167 103° East 510 587 30,400 500 Climbing Edmonton Center
Thu 12:17:41 AM 52.7000 -109.4833 109° East 520 598 31,100 850 Climbing Edmonton Center
Thu 12:18:41 AM 52.6667 -109.2333 102° East 530 610 32,100 800 Climbing Edmonton Center
Thu 12:19:41 AM 52.6167 -109.0000 109° East 530 610 32,700 450 Climbing Edmonton Center
Thu 12:20:41 AM 52.5833 -108.7833 104° East 530 610 33,000 150 Climbing Edmonton Center
Thu 12:21:41 AM 52.5333 -108.5500 109° East 540 621 33,000  Level Edmonton Center
Thu 12:22:41 AM 52.4667 -108.3000 114° Southeast 540 621 33,000  Level Edmonton Center
Thu 12:23:41 AM 52.4333 -108.0667 103° East 540 621 33,000  Level Edmonton Center
Thu 12:24:41 AM 52.3833 -107.8500 111° Southeast 530 610 33,000  Level Edmonton Center
Thu 12:25:41 AM 52.3333 -107.5833 107° East 530 610 33,000  Level Edmonton Center
Thu 12:26:41 AM 52.3000 -107.3667 104° East 530 610 33,000  Level Edmonton Center
Thu 12:27:41 AM 52.2500 -107.1167 108° East 530 610 33,000  Level Edmonton Center
Thu 12:28:41 AM 52.2000 -106.9167 112° Southeast 530 610 33,000  Level Edmonton Center
Thu 12:29:41 AM 52.1500 -106.6667 108° East 540 621 33,000  Level Edmonton Center
Thu 12:30:41 AM 52.1000 -106.4500 111° Southeast 540 621 33,000  Level Edmonton Center
Thu 12:31:41 AM 52.0500 -106.2000 108° East 520 598 33,000  Level Edmonton Center
Thu 12:32:41 AM 52.0167 -105.9833 104° East 520 598 33,000  Level Edmonton Center
Thu 12:33:41 AM 51.9667 -105.7667 110° East 520 598 33,000  Level Edmonton Center
Thu 12:34:41 AM 51.9167 -105.5333 109° East 520 598 33,000  Level Edmonton Center
Thu 12:35:41 AM 51.8667 -105.3000 109° East 520 598 33,000  Level Edmonton Center
Thu 12:36:41 AM 51.8333 -105.0667 103° East 520 598 33,000  Level Edmonton Center
Thu 12:37:41 AM 51.7833 -104.8500 110° East 520 598 33,000  Level Edmonton Center
Thu 12:38:41 AM 51.7333 -104.6333 110° East 520 598 33,000  Level Edmonton Center
Thu 12:39:41 AM 51.6667 -104.4000 115° Southeast 520 598 33,000  Level Edmonton Center
Thu 12:40:41 AM 51.6333 -104.2000 105° East 510 587 33,000  Level Edmonton Center
Thu 12:41:41 AM 51.5833 -103.9833 110° East 510 587 33,000  Level Edmonton Center
Thu 12:42:41 AM 51.5333 -103.7500 109° East 510 587 33,000  Level Edmonton Center
Thu 12:43:41 AM 51.4833 -103.5333 110° East 510 587 33,000  Level Edmonton Center
Thu 12:44:41 AM 51.4333 -103.3167 110° East 510 587 33,000  Level Edmonton Center
Thu 12:45:41 AM 51.3833 -103.1000 110° East 510 587 33,000  Level Edmonton Center
Thu 12:46:41 AM 51.3333 -102.8833 110° East 510 587 33,000  Level Edmonton Center
Thu 12:47:41 AM 51.3000 -102.6667 104° East 500 575 33,000  Level Edmonton Center
Thu 12:48:41 AM 51.2500 -102.4833 113° Southeast 500 575 33,000  Level Edmonton Center
Thu 12:49:41 AM 51.2000 -102.2667 110° East 490 564 33,000  Level Edmonton Center
Thu 12:50:41 AM 51.1500 -102.0667 112° Southeast 490 564 33,000  Level Edmonton Center
Thu 12:51:41 AM 51.1000 -101.8500 110° East 490 564 33,000  Level Edmonton Center
Thu 12:52:41 AM 51.0667 -101.6667 106° East 480 552 33,000  Level Edmonton Center
Thu 12:53:41 AM 51.0167 -101.4500 110° East 480 552 33,000  Level Edmonton Center
Thu 12:54:41 AM 50.9500 -101.2500 118° Southeast 480 552 33,000  Level Edmonton Center
Thu 12:55:41 AM 50.9167 -101.0333 104° East 480 552 33,000  Level Edmonton Center
Thu 12:56:41 AM 50.8667 -100.8667 115° Southeast 480 552 33,000  Level Edmonton Center
Thu 12:58:02 AM 50.8167 -100.6000 106° East 490 564 33,000 -43 Level Winnipeg Center
Thu 12:59:02 AM 50.7667 -100.4000 112° Southeast 490 564 32,900  Descending Winnipeg Center
Thu 01:00:02 AM 50.7000 -100.1833 116° Southeast 500 575 33,000 100 Climbing Winnipeg Center
Thu 01:01:02 AM 50.6667 -100.0000 106° East 510 587 33,100  Climbing Winnipeg Center
Thu 01:02:02 AM 50.6000 -99.7833 116° Southeast 520 598 33,000 -50 Descending Winnipeg Center
Thu 01:03:02 AM 50.5333 -99.5667 116° Southeast 520 598 33,000 -50 Level Winnipeg Center
Thu 01:04:02 AM 50.4833 -99.3667 111° Southeast 510 587 32,900 -550 Descending Winnipeg Center
Thu 01:05:02 AM 50.4333 -99.1667 111° Southeast 510 587 31,900 -1,650 Descending Winnipeg Center
Thu 01:06:02 AM 50.3833 -98.9667 111° Southeast 480 552 29,600 -2,550 Descending Winnipeg Center
Thu 01:07:02 AM 50.3333 -98.7667 111° Southeast 460 529 26,800 -3,000 Descending Winnipeg Center
Thu 01:08:02 AM 50.2833 -98.5667 111° Southeast 470 541 23,600 -3,550 Descending Winnipeg Center
Thu 01:09:02 AM 50.2500 -98.3833 106° East 470 541 19,700 -5,150 Descending Winnipeg Center
Thu 01:10:02 AM 50.2000 -98.2167 115° Southeast 430 495 13,300 -4,450 Descending Winnipeg Center
Thu 01:11:02 AM 50.1667 -98.0667 109° East 400 460 10,800 -2,150 Descending Winnipeg Center
Thu 01:12:02 AM 50.1333 -97.9000 107° East 350 403 9,000 -2,050 Descending Winnipeg Center
Thu 01:13:02 AM 50.1000 -97.7667 111° Southeast 340 391 6,700 -1,600 Descending Winnipeg Center
Thu 01:14:02 AM 50.0667 -97.6500 114° Southeast 300 345 5,800 -1,200 Descending Winnipeg Center
Thu 01:15:02 AM 50.0333 -97.5333 114° Southeast 280 322 4,300 -1,100 Descending Winnipeg Center
Thu 01:16:02 AM 50.0167 -97.4333 105° East 250 288 3,600 -800 Descending Winnipeg Center
Thu 01:17:02 AM 49.9833 -97.3500 122° Southeast 200 230 2,700 -850 Descending Winnipeg Center
Thu 01:18:02 AM 49.9500 -97.3000 136° Southeast 150 173 1,900 -700 Descending Winnipeg Center
Thu 01:19:02 AM 49.9167 -97.2833 162° South 130 150 1,300 -600 Descending Winnipeg Center
Thu 01:20:02 AM 49.9000 -97.2333 117° Southeast 130 150 700 -600 Descending Winnipeg Center

Login

Don't have an account? Register now (free) for customized features, flight alerts, and more!